Northern Highway — 3EVE6 — position and weather

sailwx.info

Track history (hours):
 
Tides and Currents Weather Stations Pressure Air Temp Water Temp Dewpoint Dewpoint Depression Visibility Wind Speed Wind Dir Waves Ship Positions

Northern Highway

Last reported at 2014-Nov-26 07:33 UTC. Time now 2014-Nov-28 00:22 UTC.
Position N 35°06' E 139°44'.

Length 188 m; draft 8.3 m.

Type: Cargo ship. MMSI: 371608000.

Date/timePositionNaut miles runAvg speedWind from/ knotsBaromVisibWave heightAir tempDewpointWater temp
2014-Nov-26 07:33N 35°06' E 139°44'1212.2
2014-Nov-26 06:33N 35°18' E 139°44'9 9.2
2014-Nov-26 05:32N 35°27' E 139°41'0 0.0
2014-Nov-26 04:32N 35°27' E 139°41'0 0.0
2014-Nov-26 03:32N 35°27' E 139°41'0 0.0
2014-Nov-26 02:32N 35°27' E 139°41'0 0.0
2014-Nov-26 01:32N 35°27' E 139°41'0 0.0
2014-Nov-26 00:32N 35°27' E 139°41'0 0.0
2014-Nov-25 23:32N 35°27' E 139°41'2 2.2
2014-Nov-25 22:33N 35°26' E 139°43'1010.5
2014-Nov-25 21:33N 35°16' E 139°46'10 9.6
2014-Nov-25 20:33N 35°06' E 139°45'  
2014-Nov-23 07:33N 34°33' E 134°36'1513.8
2014-Nov-23 06:28N 34°43' E 134°50'0 0.5
2014-Nov-23 05:32N 34°43' E 134°51'0 0.0
2014-Nov-23 04:20N 34°43' E 134°51'0 0.0
2014-Nov-23 02:26N 34°43' E 134°51'0 0.0
2014-Nov-23 01:26N 34°43' E 134°51'0 0.0
2014-Nov-23 00:32N 34°43' E 134°51'0 0.0
2014-Nov-22 23:32N 34°43' E 134°51'0 0.2
2014-Nov-22 22:31N 34°43' E 134°51'3 2.8
2014-Nov-22 21:26N 34°40' E 134°49'0 0.0
2014-Nov-22 20:32N 34°40' E 134°49'0 0.0
2014-Nov-22 19:26N 34°40' E 134°49'0 0.0
2014-Nov-22 18:32N 34°40' E 134°49'0 0.0
2014-Nov-22 17:14N 34°40' E 134°49'0 0.0
2014-Nov-22 16:26N 34°40' E 134°49'0 0.0
2014-Nov-22 15:32N 34°40' E 134°49'0 0.0
2014-Nov-22 14:26N 34°40' E 134°49'0 0.1
2014-Nov-22 13:34N 34°40' E 134°49'9 9.4
2014-Nov-22 12:33N 34°34' E 134°40'14 0.4
2014-Nov-21 02:34N 34°37' E 134°56'1010.3
2014-Nov-21 01:33N 34°33' E 135°08'7 7.5
2014-Nov-21 00:33N 34°26' E 135°04'1212.0
2014-Nov-20 23:33N 34°15' E 134°59'9 9.3
2014-Nov-20 22:33N 34°06' E 134°57'1 1.4
2014-Nov-20 21:33N 34°05' E 134°57'1 0.8
2014-Nov-20 20:33N 34°04' E 134°58'3 2.5
2014-Nov-20 19:34N 34°02' E 134°58'  
Track history (hours):
 
Tides and Currents Weather Stations Pressure Air Temp Water Temp Dewpoint Dewpoint Depression Visibility Wind Speed Wind Dir Waves Ship Positions

Northern Highway

Last reported at 2014-Nov-26 07:33 UTC. Time now 2014-Nov-28 00:22 UTC.
Position N 35°06' E 139°44'.

Length 188 m; draft 8.3 m.

Type: Cargo ship. MMSI: 371608000.

Date/timePositionNaut miles runAvg speedWind from/ knotsBaromVisibWave heightAir tempDewpointWater temp
2014-Nov-26 07:33N 35°06' E 139°44'1212.2
2014-Nov-26 06:33N 35°18' E 139°44'9 9.2
2014-Nov-26 05:32N 35°27' E 139°41'0 0.0
2014-Nov-26 04:32N 35°27' E 139°41'0 0.0
2014-Nov-26 03:32N 35°27' E 139°41'0 0.0
2014-Nov-26 02:32N 35°27' E 139°41'0 0.0
2014-Nov-26 01:32N 35°27' E 139°41'0 0.0
2014-Nov-26 00:32N 35°27' E 139°41'0 0.0
2014-Nov-25 23:32N 35°27' E 139°41'2 2.2
2014-Nov-25 22:33N 35°26' E 139°43'1010.5
2014-Nov-25 21:33N 35°16' E 139°46'10 9.6
2014-Nov-25 20:33N 35°06' E 139°45'  
2014-Nov-23 07:33N 34°33' E 134°36'1513.8
2014-Nov-23 06:28N 34°43' E 134°50'0 0.5
2014-Nov-23 05:32N 34°43' E 134°51'0 0.0
2014-Nov-23 04:20N 34°43' E 134°51'0 0.0
2014-Nov-23 02:26N 34°43' E 134°51'0 0.0
2014-Nov-23 01:26N 34°43' E 134°51'0 0.0
2014-Nov-23 00:32N 34°43' E 134°51'0 0.0
2014-Nov-22 23:32N 34°43' E 134°51'0 0.2
2014-Nov-22 22:31N 34°43' E 134°51'3 2.8
2014-Nov-22 21:26N 34°40' E 134°49'0 0.0
2014-Nov-22 20:32N 34°40' E 134°49'0 0.0
2014-Nov-22 19:26N 34°40' E 134°49'0 0.0
2014-Nov-22 18:32N 34°40' E 134°49'0 0.0
2014-Nov-22 17:14N 34°40' E 134°49'0 0.0
2014-Nov-22 16:26N 34°40' E 134°49'0 0.0
2014-Nov-22 15:32N 34°40' E 134°49'0 0.0
2014-Nov-22 14:26N 34°40' E 134°49'0 0.1
2014-Nov-22 13:34N 34°40' E 134°49'9 9.4
2014-Nov-22 12:33N 34°34' E 134°40'14 0.4
2014-Nov-21 02:34N 34°37' E 134°56'1010.3
2014-Nov-21 01:33N 34°33' E 135°08'7 7.5
2014-Nov-21 00:33N 34°26' E 135°04'1212.0
2014-Nov-20 23:33N 34°15' E 134°59'9 9.3
2014-Nov-20 22:33N 34°06' E 134°57'1 1.4
2014-Nov-20 21:33N 34°05' E 134°57'1 0.8
2014-Nov-20 20:33N 34°04' E 134°58'3 2.5
2014-Nov-20 19:34N 34°02' E 134°58'  

Dump ship's entire track history